Aérodrome :
LOGIN :

S'inscrire | Disclaimer

   EN    FR    IT 

 










Légende :    VFR   VFR Marginal   IFR   IFR Intensif   IFR Très Intensif
Visi : 
Plafond : 
>= 8 km
>= 3000ft
5 à 8 km
1000 à 3000 ft
1500m à 5 km
500 à 1000 ft
800 à 1500m
200 à 500 ft
< 800m
< 200 ft
Symboles :   Orages  Brouillard  Fortes neiges  Fortes précipitations  Vent > 20 kt
SIGMETs :   Divers  Orages  Givrage  Turbulence  Onde Orograph.  Cendres Volcan.







- Altitude de l'aérodrome : 433 ft
- Voir les cartes d'approche


LFOC - Chateaudun

DERNIER METAR :
  • 142130Z AUTO 00000KT 0300 0250 R28/0300N FG VV/// 06/06 Q1023

METARs EXPIRÉS :
  • 142100Z AUTO 02002KT 0400 0350 R28/0400N FG VV/// 06/06 Q1023
  • 142030Z AUTO VRB02KT 0450 R28/0500N FG VV/// 06/06 Q1023
  • 142000Z AUTO 00000KT 0600 0550 R28/0600D FG VV/// 05/05 Q1023
  • 141930Z AUTO 00000KT 0400 0350 R28/0550U FG VV/// 05/05 Q1023
  • 141900Z AUTO 00000KT 0400 R28/0450N FG VV/// 05/05 Q1023

TAF TAF LFOC
Valide du 14 à 15h jusqu'au 15 à 15h UTC


141400Z 1415/1515 10005KT 7000 OVC002
TEMPO 1415/1417 0750 FG VV///
BECMG 1417/1418 BKN006
BECMG 1421/1423 3000 BR BKN005
PROB40
TEMPO 1501/1505 0700 FG VV///
Pas de NOTAMs connus pour ce terrain.



MET'MAP, la Météo Aéronautique d'un coup d'oeil ! - Copyright ORBIFLY Décembre 2007 - Disclaimer

ORBIFLY MET'MAP TEAM :

Programmation & Développement : Alexandra Zaïnal
Conception & Développement : Baudouin d'Aumeries
Co-Programmation & Développement : Marc-Olivier Méhu
Soutien technique & logistique : Manuel Goepfert

Contact : metmap@orbifly.com




SOURCES & CREDITS :

   NOAA